createdAt,value
2023-03-26T00:00:15.133Z,85.88
2023-03-26T00:03:05.143Z,86.66
2023-03-26T00:05:34.507Z,87.17
2023-03-26T00:08:04.076Z,86.73
2023-03-26T00:10:33.321Z,88.23
2023-03-26T00:13:02.879Z,88.14
2023-03-26T00:15:34.493Z,87.01
2023-03-26T00:18:05.923Z,87.67
2023-03-26T00:20:35.242Z,87.97
2023-03-26T00:23:04.768Z,87.00
2023-03-26T00:25:34.980Z,87.11
2023-03-26T00:28:06.260Z,87.34
2023-03-26T00:30:37.462Z,86.47
2023-03-26T00:33:07.810Z,86.82
2023-03-26T00:35:38.454Z,88.25
2023-03-26T00:38:08.022Z,87.55
2023-03-26T00:40:37.362Z,87.13
2023-03-26T00:43:19.459Z,86.74
2023-03-26T00:45:53.479Z,88.00
2023-03-26T00:48:31.612Z,87.47
2023-03-26T00:51:13.036Z,88.09
2023-03-26T00:53:42.778Z,87.42
2023-03-26T00:56:13.674Z,86.63
2023-03-26T00:58:43.569Z,88.12
2023-03-26T01:01:17.243Z,87.34
2023-03-26T01:04:04.837Z,87.19
2023-03-26T01:06:38.778Z,88.58
2023-03-26T01:09:16.017Z,88.42
2023-03-26T01:11:46.155Z,88.95
2023-03-26T01:14:19.660Z,88.78
2023-03-26T01:16:53.112Z,88.72
2023-03-26T01:19:29.337Z,89.78
2023-03-26T01:22:00.692Z,89.01
2023-03-26T01:24:31.941Z,88.39
2023-03-26T01:27:17.894Z,88.31
2023-03-26T01:29:54.361Z,87.57
2023-03-26T01:32:47.686Z,87.52
2023-03-26T01:35:30.611Z,86.83
2023-03-26T01:38:18.610Z,86.53
2023-03-26T01:41:00.260Z,86.56
2023-03-26T01:43:36.266Z,86.65
2023-03-26T01:46:09.214Z,86.65
2023-03-26T01:48:41.359Z,87.02
2023-03-26T01:51:12.906Z,88.54
2023-03-26T01:53:45.213Z,87.68
2023-03-26T01:56:26.906Z,87.08
2023-03-26T01:59:11.258Z,88.74
2023-03-26T02:01:48.423Z,87.72
2023-03-26T02:04:26.450Z,87.62
2023-03-26T02:07:05.904Z,87.29
2023-03-26T02:09:45.829Z,87.55
2023-03-26T02:12:17.402Z,87.71
2023-03-26T02:14:46.954Z,87.87
2023-03-26T02:17:16.908Z,87.90
2023-03-26T02:19:46.132Z,86.86
2023-03-26T02:22:16.326Z,87.97
2023-03-26T02:24:47.447Z,87.22
2023-03-26T02:27:18.831Z,86.90
2023-03-26T02:29:50.423Z,86.42
2023-03-26T02:32:23.494Z,86.27
2023-03-26T02:34:52.782Z,86.65
2023-03-26T02:37:22.263Z,86.01
2023-03-26T02:39:56.702Z,86.79
2023-03-26T02:42:33.776Z,86.43
2023-03-26T02:45:03.096Z,86.06
2023-03-26T02:47:38.678Z,85.88
2023-03-26T02:50:36.862Z,86.39
2023-03-26T02:53:29.918Z,86.54
2023-03-26T02:56:17.878Z,87.03
2023-03-26T02:59:02.864Z,86.82
2023-03-26T03:01:35.193Z,86.20
2023-03-26T03:04:05.757Z,85.93
2023-03-26T03:06:40.602Z,87.40
2023-03-26T03:09:10.549Z,87.09
2023-03-26T03:11:41.097Z,87.23
2023-03-26T03:14:12.381Z,87.71
2023-03-26T03:16:41.691Z,88.03
2023-03-26T03:19:13.245Z,88.32
2023-03-26T03:21:43.399Z,87.42
2023-03-26T03:24:13.962Z,86.87
2023-03-26T03:26:48.042Z,87.14
2023-03-26T03:29:39.320Z,87.18
2023-03-26T03:32:29.063Z,86.29
2023-03-26T03:35:03.462Z,86.80
2023-03-26T03:37:32.845Z,86.50
2023-03-26T03:40:05.890Z,87.39
2023-03-26T03:42:37.011Z,87.46
2023-03-26T03:45:10.622Z,87.29
2023-03-26T03:47:58.604Z,88.12
2023-03-26T03:50:36.152Z,89.04
2023-03-26T03:53:22.058Z,89.41
2023-03-26T03:55:55.190Z,89.47
2023-03-26T03:58:31.183Z,89.92
2023-03-26T04:01:11.200Z,88.74
2023-03-26T04:03:55.847Z,88.05
2023-03-26T04:06:30.317Z,87.81
2023-03-26T04:08:59.350Z,87.38
2023-03-26T04:11:29.112Z,88.83
2023-03-26T04:14:18.364Z,88.81
2023-03-26T04:17:09.644Z,89.02
2023-03-26T04:19:40.723Z,88.19
2023-03-26T04:22:12.120Z,87.62
2023-03-26T04:24:54.640Z,87.75
2023-03-26T04:27:30.322Z,87.64
2023-03-26T04:30:15.149Z,87.50
2023-03-26T04:32:47.424Z,88.34
2023-03-26T04:35:19.610Z,87.67
2023-03-26T04:37:55.173Z,88.05
2023-03-26T04:40:34.831Z,88.10
2023-03-26T04:43:16.399Z,87.51
2023-03-26T04:46:04.924Z,88.75
2023-03-26T04:48:42.188Z,88.65
2023-03-26T04:51:18.066Z,88.46
2023-03-26T04:53:53.226Z,88.89
2023-03-26T04:56:39.735Z,88.57
2023-03-26T04:59:26.660Z,88.01
2023-03-26T05:01:58.138Z,89.57
2023-03-26T05:04:30.998Z,90.03
2023-03-26T05:07:01.311Z,89.69
2023-03-26T05:09:39.746Z,89.29
2023-03-26T05:12:18.009Z,89.55
2023-03-26T05:15:02.311Z,89.08
2023-03-26T05:17:50.067Z,89.70
2023-03-26T05:20:32.575Z,90.82
2023-03-26T05:23:02.246Z,90.68
2023-03-26T05:25:34.928Z,89.68
2023-03-26T05:28:06.394Z,90.20
2023-03-26T05:30:46.995Z,89.40
2023-03-26T05:33:16.538Z,90.06
2023-03-26T05:36:02.854Z,89.97
2023-03-26T05:38:34.419Z,89.06
2023-03-26T05:41:07.535Z,88.75
2023-03-26T05:43:38.908Z,88.39
2023-03-26T05:46:12.997Z,89.02
2023-03-26T05:48:42.377Z,88.79
2023-03-26T05:51:15.618Z,89.08
2023-03-26T05:53:51.880Z,88.72
2023-03-26T05:56:27.850Z,88.72
2023-03-26T05:59:03.199Z,88.28
2023-03-26T06:01:54.629Z,88.02
2023-03-26T06:04:46.450Z,88.03
2023-03-26T06:07:23.073Z,88.33
2023-03-26T06:10:14.574Z,87.91
2023-03-26T06:12:49.716Z,87.84
2023-03-26T06:15:19.755Z,87.58
2023-03-26T06:18:02.409Z,87.06
2023-03-26T06:20:52.443Z,87.36
2023-03-26T06:23:43.827Z,87.22
2023-03-26T06:26:33.400Z,87.41
2023-03-26T06:29:36.933Z,87.24
2023-03-26T06:32:22.755Z,86.84
2023-03-26T06:34:59.142Z,86.60
2023-03-26T06:37:28.400Z,86.34
2023-03-26T06:40:06.373Z,87.30
2023-03-26T06:43:10.958Z,86.53
2023-03-26T06:45:52.903Z,86.14
2023-03-26T06:48:40.989Z,86.39
2023-03-26T06:51:23.904Z,86.84
2023-03-26T06:54:12.057Z,86.44
2023-03-26T06:56:54.158Z,86.84
2023-03-26T06:59:58.839Z,86.86
2023-03-26T07:02:47.772Z,86.59
2023-03-26T07:05:38.004Z,86.57
2023-03-26T07:08:26.554Z,86.92
2023-03-26T07:11:34.493Z,86.90
2023-03-26T07:14:24.577Z,86.60
2023-03-26T07:17:26.811Z,85.99
2023-03-26T07:20:13.903Z,85.51
2023-03-26T07:22:45.092Z,86.32
2023-03-26T07:25:21.315Z,86.42
2023-03-26T07:28:01.045Z,86.29
2023-03-26T07:30:54.945Z,86.61
2023-03-26T07:33:55.072Z,86.16
2023-03-26T07:36:58.534Z,86.11
2023-03-26T07:39:47.777Z,85.15
2023-03-26T07:42:54.158Z,85.40
2023-03-26T07:45:46.036Z,85.59
2023-03-26T07:48:25.451Z,85.53
2023-03-26T07:51:14.070Z,85.30
2023-03-26T07:54:07.798Z,85.82
2023-03-26T07:56:50.142Z,85.28
2023-03-26T07:59:49.078Z,85.91
2023-03-26T08:03:15.204Z,86.38
2023-03-26T08:06:24.734Z,86.21
2023-03-26T08:09:10.204Z,84.84
2023-03-26T08:12:22.990Z,84.57
2023-03-26T08:14:58.932Z,84.63
2023-03-26T08:17:36.073Z,85.59
2023-03-26T08:20:16.932Z,85.08
2023-03-26T08:22:51.984Z,84.32
2023-03-26T08:25:29.737Z,84.60
2023-03-26T08:28:11.980Z,84.56
2023-03-26T08:30:41.588Z,84.82
2023-03-26T08:33:17.932Z,85.10
2023-03-26T08:35:49.998Z,84.69
2023-03-26T08:38:21.265Z,85.60
2023-03-26T08:41:29.292Z,85.41
2023-03-26T08:44:48.958Z,85.59
2023-03-26T08:47:47.921Z,85.01
2023-03-26T08:50:45.847Z,84.63
2023-03-26T08:53:48.642Z,84.57
2023-03-26T08:56:26.022Z,84.50
2023-03-26T08:59:29.926Z,84.12
2023-03-26T09:02:34.361Z,84.32
2023-03-26T09:05:42.959Z,84.05
2023-03-26T09:09:00.352Z,83.30
2023-03-26T09:11:56.056Z,81.80
2023-03-26T09:14:48.888Z,82.20
2023-03-26T09:17:57.743Z,80.61
2023-03-26T09:21:04.948Z,80.60
2023-03-26T09:24:06.342Z,79.81
2023-03-26T09:26:51.449Z,79.84
2023-03-26T09:30:09.817Z,79.18
2023-03-26T09:33:09.922Z,78.42
2023-03-26T09:36:05.772Z,78.50
2023-03-26T09:38:46.273Z,78.91
2023-03-26T09:41:22.231Z,78.77
2023-03-26T09:44:13.031Z,79.34
2023-03-26T09:46:57.506Z,79.47
2023-03-26T09:49:48.886Z,79.23
2023-03-26T09:52:52.053Z,79.41
2023-03-26T09:55:43.566Z,79.88
2023-03-26T09:58:40.863Z,80.46
2023-03-26T10:01:18.223Z,80.90
2023-03-26T10:04:01.098Z,80.13
2023-03-26T10:06:55.548Z,80.58
2023-03-26T10:09:48.474Z,81.10
2023-03-26T10:12:33.663Z,81.32
2023-03-26T10:15:25.089Z,81.25
2023-03-26T10:18:27.487Z,81.88
2023-03-26T10:21:02.879Z,82.37
2023-03-26T10:23:49.959Z,82.07
2023-03-26T10:27:08.935Z,82.20
2023-03-26T10:30:14.867Z,82.12
2023-03-26T10:32:54.921Z,82.36
2023-03-26T10:35:28.853Z,82.18
2023-03-26T10:38:15.489Z,82.17
2023-03-26T10:40:56.880Z,81.85
2023-03-26T10:44:05.294Z,81.73
2023-03-26T10:47:10.973Z,81.33
2023-03-26T10:50:04.338Z,79.97
2023-03-26T10:52:40.216Z,79.00
2023-03-26T10:55:19.679Z,76.20
2023-03-26T10:57:54.094Z,76.78
2023-03-26T11:00:26.305Z,73.86
2023-03-26T11:03:28.225Z,73.16
2023-03-26T11:06:12.504Z,72.02
2023-03-26T11:08:49.844Z,67.56
2023-03-26T11:11:27.381Z,68.10
2023-03-26T11:14:03.691Z,68.44
2023-03-26T11:16:42.766Z,68.80
2023-03-26T11:19:21.945Z,68.04
2023-03-26T11:22:02.601Z,68.64
2023-03-26T11:25:05.135Z,68.28
2023-03-26T11:27:50.358Z,69.03
2023-03-26T11:30:34.466Z,70.92
2023-03-26T11:33:09.013Z,72.30
2023-03-26T11:35:41.929Z,73.39
2023-03-26T11:38:21.619Z,73.61
2023-03-26T11:40:55.909Z,72.68
2023-03-26T11:44:04.114Z,72.82
2023-03-26T11:46:37.559Z,72.97
2023-03-26T11:49:12.075Z,71.15
2023-03-26T11:51:43.252Z,70.68
2023-03-26T11:54:14.996Z,70.14
2023-03-26T11:57:05.434Z,69.02
2023-03-26T11:59:53.172Z,68.29
2023-03-26T12:02:32.619Z,68.75
2023-03-26T12:05:19.455Z,69.03
2023-03-26T12:07:54.561Z,68.78
2023-03-26T12:10:32.277Z,69.27
2023-03-26T12:13:08.482Z,69.60
2023-03-26T12:15:46.849Z,69.21
2023-03-26T12:18:27.045Z,69.69
2023-03-26T12:21:09.088Z,70.36
2023-03-26T12:23:51.867Z,70.75
2023-03-26T12:26:22.776Z,71.16
2023-03-26T12:28:52.982Z,71.29
2023-03-26T12:31:26.619Z,70.33
2023-03-26T12:34:08.441Z,70.20
2023-03-26T12:36:39.289Z,69.21
2023-03-26T12:40:09.142Z,69.89
2023-03-26T12:44:48.635Z,69.80
2023-03-26T12:45:24.153Z,71.21
2023-03-26T12:48:03.873Z,71.86
2023-03-26T12:50:53.075Z,72.33
2023-03-26T12:53:49.206Z,71.56
2023-03-26T12:56:36.475Z,70.59
2023-03-26T12:59:27.131Z,69.46
2023-03-26T13:02:16.094Z,68.58
2023-03-26T13:05:06.022Z,68.66
2023-03-26T13:07:59.774Z,68.54
2023-03-26T13:10:50.331Z,69.12
2023-03-26T13:13:40.870Z,70.83
2023-03-26T13:16:17.959Z,73.04
2023-03-26T13:18:54.588Z,74.63
2023-03-26T13:21:37.132Z,74.96
2023-03-26T13:24:17.378Z,74.31
2023-03-26T13:27:01.987Z,73.60
2023-03-26T13:29:42.569Z,74.17
2023-03-26T13:32:19.607Z,73.71
2023-03-26T13:35:05.398Z,73.51
2023-03-26T13:37:43.253Z,72.61
2023-03-26T13:40:26.076Z,73.10
2023-03-26T13:43:11.946Z,73.78
2023-03-26T13:45:52.001Z,72.12
2023-03-26T13:48:25.745Z,72.19
2023-03-26T13:51:05.170Z,71.36
2023-03-26T13:53:42.080Z,71.01
2023-03-26T13:56:15.990Z,72.75
2023-03-26T13:58:51.380Z,70.36
2023-03-26T14:01:23.834Z,69.71
2023-03-26T14:03:59.633Z,68.32
2023-03-26T14:06:42.358Z,68.28
2023-03-26T14:09:21.856Z,67.47
2023-03-26T14:12:02.328Z,66.76
2023-03-26T14:14:40.252Z,65.67
2023-03-26T14:17:18.508Z,64.96
2023-03-26T14:20:15.012Z,66.23
2023-03-26T14:22:55.673Z,66.64
2023-03-26T14:25:31.491Z,64.15
2023-03-26T14:28:15.854Z,62.82
2023-03-26T14:31:01.253Z,63.58
2023-03-26T14:33:59.705Z,62.93
2023-03-26T14:36:59.150Z,62.61
2023-03-26T14:40:00.815Z,61.37
2023-03-26T14:42:42.619Z,60.57
2023-03-26T14:45:43.547Z,59.16
2023-03-26T14:48:46.667Z,58.68
2023-03-26T14:51:41.509Z,59.42
2023-03-26T14:54:14.431Z,59.57
2023-03-26T14:57:38.293Z,60.25
2023-03-26T15:00:40.809Z,60.64
2023-03-26T15:03:52.611Z,60.77
2023-03-26T15:07:03.499Z,61.45
2023-03-26T15:10:09.400Z,61.15
2023-03-26T15:12:57.219Z,60.97
2023-03-26T15:16:05.433Z,61.53
2023-03-26T15:19:11.957Z,61.49
2023-03-26T15:22:12.940Z,61.56
2023-03-26T15:25:21.976Z,62.04
2023-03-26T15:28:14.761Z,61.15
2023-03-26T15:31:47.692Z,60.85
2023-03-26T15:35:02.713Z,60.55
2023-03-26T15:38:10.199Z,60.66
2023-03-26T15:40:58.732Z,61.35
2023-03-26T15:43:58.223Z,61.62
2023-03-26T15:47:03.244Z,62.57
2023-03-26T15:49:44.803Z,62.87
2023-03-26T15:52:27.125Z,62.73
2023-03-26T15:55:06.322Z,63.24
2023-03-26T15:57:41.173Z,64.63
2023-03-26T16:00:25.077Z,65.47
2023-03-26T16:03:17.726Z,65.44
2023-03-26T16:06:31.038Z,65.22
2023-03-26T16:09:14.900Z,66.00
2023-03-26T16:11:56.288Z,66.88
2023-03-26T16:14:42.432Z,66.63
2023-03-26T16:17:17.886Z,66.95
2023-03-26T16:20:15.185Z,67.05
2023-03-26T16:22:57.311Z,66.66
2023-03-26T16:25:30.982Z,68.01
2023-03-26T16:28:35.915Z,67.68
2023-03-26T16:31:38.239Z,66.68
2023-03-26T16:34:30.274Z,67.36
2023-03-26T16:37:01.700Z,68.04
2023-03-26T16:39:42.515Z,67.10
2023-03-26T16:42:34.300Z,67.12
2023-03-26T16:45:19.370Z,65.18
2023-03-26T16:47:59.100Z,65.03
2023-03-26T16:50:42.291Z,64.59
2023-03-26T16:53:30.782Z,64.78
2023-03-26T16:56:05.008Z,65.53
2023-03-26T16:58:45.036Z,66.41
2023-03-26T17:01:27.404Z,66.38
2023-03-26T17:04:01.849Z,66.25
2023-03-26T17:07:05.905Z,66.31
2023-03-26T17:09:46.676Z,66.09
2023-03-26T17:12:23.962Z,67.24
2023-03-26T17:15:07.609Z,66.15
2023-03-26T17:17:51.471Z,64.59
2023-03-26T17:20:33.360Z,64.74
2023-03-26T17:23:19.039Z,65.47
2023-03-26T17:26:02.068Z,65.41
2023-03-26T17:28:50.532Z,65.06
2023-03-26T17:31:31.409Z,64.54
2023-03-26T17:34:48.607Z,64.96
2023-03-26T17:37:48.110Z,64.83
2023-03-26T17:40:46.990Z,63.08
2023-03-26T17:43:44.139Z,63.94
2023-03-26T17:46:33.496Z,64.51
2023-03-26T17:49:09.915Z,64.37
2023-03-26T17:51:49.141Z,64.39
2023-03-26T17:54:27.496Z,64.67
2023-03-26T17:57:02.544Z,63.90
2023-03-26T17:59:38.129Z,63.77
2023-03-26T18:02:17.317Z,64.19
2023-03-26T18:04:50.031Z,64.52
2023-03-26T18:08:02.709Z,64.80
2023-03-26T18:11:04.556Z,65.27
2023-03-26T18:14:19.194Z,64.66
2023-03-26T18:16:53.456Z,65.25
2023-03-26T18:19:25.936Z,65.02
2023-03-26T18:21:58.189Z,66.05
2023-03-26T18:24:30.549Z,66.80
2023-03-26T18:27:06.216Z,65.91
2023-03-26T18:29:39.145Z,66.69
2023-03-26T18:32:22.745Z,66.16
2023-03-26T18:34:58.480Z,66.37
2023-03-26T18:37:30.119Z,66.78
2023-03-26T18:40:11.653Z,67.52
2023-03-26T18:42:46.810Z,67.53
2023-03-26T18:45:26.857Z,67.10
2023-03-26T18:47:59.641Z,67.73
2023-03-26T18:50:34.991Z,67.17
2023-03-26T18:53:08.147Z,66.83
2023-03-26T18:55:39.780Z,68.07
2023-03-26T18:58:25.224Z,68.01
2023-03-26T19:00:57.635Z,68.38
2023-03-26T19:03:28.687Z,68.23
2023-03-26T19:05:59.295Z,68.34
2023-03-26T19:08:30.444Z,67.88
2023-03-26T19:11:02.273Z,68.30
2023-03-26T19:13:35.205Z,69.04
2023-03-26T19:16:08.851Z,68.24
2023-03-26T19:18:41.226Z,68.61
2023-03-26T19:21:18.167Z,68.98
2023-03-26T19:23:48.852Z,68.78
2023-03-26T19:26:19.139Z,69.02
2023-03-26T19:28:53.474Z,69.02
2023-03-26T19:31:26.212Z,68.04
2023-03-26T19:33:59.033Z,69.07
2023-03-26T19:36:31.816Z,68.71
2023-03-26T19:39:17.454Z,68.89
2023-03-26T19:41:54.898Z,68.72
2023-03-26T19:44:28.728Z,69.38
2023-03-26T19:47:05.172Z,69.95
2023-03-26T19:49:43.202Z,70.03
2023-03-26T19:52:16.306Z,69.08
2023-03-26T19:54:59.684Z,68.94
2023-03-26T19:57:32.153Z,69.86
2023-03-26T20:00:05.205Z,69.38
2023-03-26T20:02:35.409Z,69.31
2023-03-26T20:05:05.332Z,70.06
2023-03-26T20:07:36.437Z,69.88
2023-03-26T20:10:08.202Z,70.06
2023-03-26T20:12:37.486Z,70.42
2023-03-26T20:15:19.533Z,71.50
2023-03-26T20:17:50.303Z,71.24
2023-03-26T20:20:20.413Z,71.47
2023-03-26T20:22:49.792Z,71.76
2023-03-26T20:25:21.851Z,71.36
2023-03-26T20:27:53.096Z,71.02
2023-03-26T20:30:36.839Z,71.11
2023-03-26T20:33:12.752Z,70.38
2023-03-26T20:35:44.955Z,70.78
2023-03-26T20:38:14.500Z,70.73
2023-03-26T20:40:44.914Z,70.26
2023-03-26T20:43:15.670Z,71.55
2023-03-26T20:45:46.993Z,72.54
2023-03-26T20:48:16.387Z,71.77
2023-03-26T20:50:50.617Z,71.09
2023-03-26T20:53:20.500Z,72.54
2023-03-26T20:55:51.550Z,71.48
2023-03-26T20:58:31.367Z,71.85
2023-03-26T21:01:03.808Z,73.39
2023-03-26T21:03:33.385Z,73.64
2023-03-26T21:06:03.788Z,73.84
2023-03-26T21:08:36.875Z,73.16
2023-03-26T21:11:16.641Z,72.55
2023-03-26T21:14:02.263Z,72.59
2023-03-26T21:16:34.000Z,72.45
2023-03-26T21:19:04.565Z,72.69
2023-03-26T21:21:47.973Z,72.61
2023-03-26T21:24:29.718Z,72.67
2023-03-26T21:27:09.015Z,73.16
2023-03-26T21:29:38.810Z,73.94
2023-03-26T21:32:12.257Z,73.47
2023-03-26T21:34:55.724Z,72.85
2023-03-26T21:37:28.185Z,72.86
2023-03-26T21:39:57.929Z,73.35
2023-03-26T21:42:29.484Z,73.64
2023-03-26T21:44:59.373Z,74.05
2023-03-26T21:47:31.064Z,74.06
2023-03-26T21:50:00.864Z,74.39
2023-03-26T21:52:31.930Z,74.71
2023-03-26T21:55:03.788Z,74.95
2023-03-26T21:57:48.534Z,74.91
2023-03-26T22:00:20.735Z,76.00
2023-03-26T22:03:08.406Z,75.43
2023-03-26T22:05:43.435Z,75.50
2023-03-26T22:08:23.082Z,76.33
2023-03-26T22:10:52.381Z,76.67
2023-03-26T22:13:21.872Z,76.37
2023-03-26T22:15:51.171Z,76.46
2023-03-26T22:18:24.555Z,75.63
2023-03-26T22:20:54.647Z,76.48
2023-03-26T22:23:24.891Z,75.42
2023-03-26T22:25:54.071Z,75.17
2023-03-26T22:28:23.594Z,74.75
2023-03-26T22:30:53.051Z,75.78
2023-03-26T22:33:24.124Z,75.92
2023-03-26T22:35:54.092Z,76.18
2023-03-26T22:38:23.736Z,75.53
2023-03-26T22:40:57.515Z,75.28
2023-03-26T22:43:27.778Z,74.99
2023-03-26T22:45:57.272Z,74.79
2023-03-26T22:48:28.438Z,73.92
2023-03-26T22:51:02.753Z,73.82
2023-03-26T22:53:32.901Z,73.55
2023-03-26T22:56:02.990Z,73.65
2023-03-26T22:58:34.083Z,73.45
2023-03-26T23:01:07.968Z,73.42
2023-03-26T23:03:39.669Z,73.53
2023-03-26T23:06:12.033Z,74.12
2023-03-26T23:08:42.176Z,73.53
2023-03-26T23:11:13.674Z,73.81
2023-03-26T23:13:44.394Z,73.89
2023-03-26T23:16:15.251Z,74.11
2023-03-26T23:18:46.685Z,73.56
2023-03-26T23:21:18.433Z,73.39
2023-03-26T23:23:49.328Z,73.49
2023-03-26T23:26:18.704Z,73.16
2023-03-26T23:28:48.565Z,73.17
2023-03-26T23:31:18.377Z,73.58
2023-03-26T23:33:50.525Z,73.66
2023-03-26T23:36:23.722Z,73.81
2023-03-26T23:38:53.865Z,73.80
2023-03-26T23:41:25.416Z,73.58
2023-03-26T23:43:55.707Z,73.60
2023-03-26T23:46:31.085Z,74.31
2023-03-26T23:49:03.889Z,74.43
2023-03-26T23:51:36.092Z,73.86
2023-03-26T23:54:06.774Z,73.70
2023-03-26T23:56:36.107Z,73.00
2023-03-26T23:59:06.157Z,71.78
